Latest Coastal Weather Observations for Hamilton Island

IDQ60701

Issued at 11:52 am EST Tuesday 28 June 2016 (issued every 10 minutes, with the page automatically refreshed every 10 minutes)

About coastal observations | Map of coastal stations | Coastal observations for QLD | Marine services | Other Formats
Station Details ID: 033106 Name: HAMILTON ISLAND AIRPORT Lat: -20.37 Lon: 148.95 Height: 58.66 m
Data from the previous 72 hours. | See also: Recent months at Hamilton Island
Date/Time
EST
Temp
°C
Wind Pressure Rain since
9am
mm
Weather Cloud Vis
km
Sea
Height
m
Swell
Dir  Spd
kts
Gust
kts
hPa Trend Height
m
Period
s
Dir
28/11:36am 17.4 SSE 20 23 1021.6 - 0.0 - Partly cloudy 10 - - - -
28/11:30am 16.8 SSE 20 24 1021.6 - 0.0 - Partly cloudy 10 - - - -
28/11:00am 17.5 SSE 22 26 1021.9 - 0.0 - Partly cloudy 10 - - - -
28/10:59am 17.6 SSE 22 26 1021.8 - 0.0 - Partly cloudy 10 - - - -
28/10:30am 17.2 SSE 22 26 1022.1 - 0.0 - Partly cloudy 10 - - - -
28/10:00am 16.9 SSE 23 26 1022.2 - 0.0 - Partly cloudy 10 - - - -
28/09:30am 16.7 SSE 23 27 1022.1 - 0.0 - Partly cloudy 10 - - - -
28/09:00am 17.2 SSE 22 26 1021.7 - 1.8 - Partly cloudy 10 - - - -
28/08:30am 17.4 SSE 23 27 1021.7 - 1.8 - Partly cloudy 10 - - - -
28/08:00am 17.3 SSE 23 26 1021.5 - 1.8 - Partly cloudy 10 - - - -
28/07:30am 17.0 SSE 23 27 1020.9 - 1.8 - Partly cloudy 10 - - - -
28/07:00am 17.1 SE 24 29 1020.3 - 1.8 - Partly cloudy 10 - - - -
28/06:30am 17.3 SSE 25 29 1019.9 - 1.8 - - 10 - - - -
28/06:00am 17.6 SSE 25 29 1019.3 - 1.8 - - 10 - - - -
28/05:30am 18.0 SSE 25 30 1019.0 - 1.8 - - 10 - - - -
28/05:00am 18.5 SSE 24 30 1018.7 - 1.8 - - 10 - - - -
28/04:30am 18.7 SSE 22 27 1018.5 - 1.8 - - 10 - - - -
28/04:00am 19.4 SSE 21 27 1018.4 - 1.8 - - 10 - - - -
28/03:30am 19.7 SSE 21 25 1018.2 - 1.8 - - 10 - - - -
28/03:00am 20.1 SSE 21 25 1018.2 - 1.8 - Mostly clear 10 - - - -
28/02:30am 21.1 SSE 19 23 1018.0 - 1.8 - Partly cloudy 10 - - - -
28/02:00am 21.2 SSE 19 23 1018.1 - 1.8 - Partly cloudy 10 - - - -
28/01:40am 21.5 SSE 18 22 1018.1 - 1.8 - Partly cloudy 10 - - - -
28/01:30am 21.7 SSE 17 20 1018.2 - 1.8 - Partly cloudy 10 - - - -
28/01:00am 21.9 SSE 19 22 1017.9 - 1.8 - Partly cloudy 10 - - - -
28/12:57am 21.7 SSE 19 22 1018.0 - 1.8 - Partly cloudy 10 - - - -
28/12:37am 21.8 SSE 21 24 1017.8 - 1.8 - Partly cloudy 10 - - - -
28/12:30am 21.7 SSE 21 24 1017.8 - 1.8 - Partly cloudy 10 - - - -
28/12:00am 22.5 S 13 19 1017.6 - 1.8 - Cloudy 10 - - - -
 
Date/Time
EST
Temp
°C
Wind Pressure Rain since
9am
mm
Weather Cloud Vis
km
Sea
Height
m
Swell
Dir  Spd
kts
Gust
kts
hPa Trend Height
m
Period
s
Dir
27/11:30pm 22.4 S 10 12 1017.8 - 1.8 - Partly cloudy 10 - - - -
27/11:28pm 22.4 S 10 13 1017.7 - 1.8 - Partly cloudy 10 - - - -
27/11:00pm 22.3 S 9 12 1017.8 - 1.8 - Partly cloudy 10 - - - -
27/10:30pm 22.5 SSW 6 8 1017.8 - 1.6 - - 10 - - - -
27/10:00pm 22.5 SW 7 8 1017.7 - 1.6 - Partly cloudy 10 - - - -
27/09:30pm 22.7 WSW 6 7 1017.6 - 1.6 - Partly cloudy 10 - - - -
27/09:00pm 23.0 NNW 3 5 1017.3 - 1.6 - Mostly clear 10 - - - -
27/08:30pm 23.0 NNW 7 8 1017.3 - 1.6 - Partly cloudy 10 - - - -
27/08:07pm 22.9 NW 7 9 1017.3 - 1.6 - Partly cloudy 10 - - - -
27/08:00pm 22.9 NW 8 9 1017.3 - 1.6 - Partly cloudy 8 - - - -
27/07:49pm 23.1 W 7 9 1017.4 - 1.6 - Partly cloudy 6 - - - -
27/07:30pm 23.4 WNW 4 6 1017.3 - 0.0 - Partly cloudy 10 - - - -
27/07:00pm 23.5 NNW 6 8 1016.9 - 0.0 - Cloudy 10 - - - -
27/06:30pm 23.6 NNW 7 9 1016.5 - 0.0 - Partly cloudy 10 - - - -
27/06:00pm 23.7 NNW 6 8 1016.0 - 0.0 - Mostly cloudy 10 - - - -
27/05:30pm 23.8 NNW 9 11 1015.7 - 0.0 - Partly cloudy 10 - - - -
27/05:00pm 24.6 NW 8 10 1015.4 - 0.0 - - 10 - - - -
27/04:30pm 25.1 NNW 8 10 1015.1 - 0.0 - - 10 - - - -
27/04:00pm 25.3 NNW 9 11 1015.0 - 0.0 - - 10 - - - -
27/03:30pm 25.0 NNW 11 14 1015.0 - 0.0 - Partly cloudy 10 - - - -
27/03:00pm 24.7 NNW 9 11 1014.9 - 0.0 - Mostly cloudy 10 - - - -
27/02:30pm 26.1 NW 8 10 1015.0 - 0.0 - Partly cloudy 10 - - - -
27/02:00pm 25.8 NW 8 10 1014.9 - 0.0 - - 10 - - - -
27/01:30pm 25.2 NNW 8 11 1015.1 - 0.0 - Partly cloudy 10 - - - -
27/01:00pm 23.8 ESE 4 5 1015.6 - 0.0 - Cloudy 10 - - - -
27/12:30pm 23.6 ESE 5 6 1016.0 - 0.0 - Cloudy 10 - - - -
27/12:00pm 24.0 ESE 5 6 1016.3 - 0.0 - Mostly cloudy 10 - - - -
27/11:30am 24.4 SW 5 7 1016.8 - 0.0 - - 10 - - - -
27/11:00am 23.8 SE 5 6 1016.9 - 0.0 - - 10 - - - -
27/10:30am 23.7 SSE 6 7 1017.3 - 0.0 - - 10 - - - -
27/10:00am 23.8 S 4 6 1017.5 - 0.0 - - 10 - - - -
27/09:30am 23.9 SSW 3 5 1017.5 - 0.0 - - 10 - - - -
27/09:00am 24.4 NE 5 7 1017.0 - 0.0 - - 10 - - - -
27/08:30am 22.6 ESE 2 6 1017.4 - 0.0 - - 10 - - - -
27/08:00am 21.6 CALM 0 0 1017.4 - 0.0 - - 10 - - - -
27/07:30am 21.0 SSW 1 3 1017.2 - 0.0 - - 10 - - - -
27/06:30am 20.4 SSW 3 6 1016.9 - 0.0 - Partly cloudy 10 - - - -
27/06:00am 20.4 SW 4 7 1016.5 - 0.0 - Cloudy 10 - - - -
27/05:30am 20.3 SW 4 6 1016.3 - 0.0 - Cloudy 10 - - - -
27/05:03am 20.1 WSW 6 9 1016.2 - 0.0 - Partly cloudy 10 - - - -
27/05:00am 20.1 WSW 6 9 1016.2 - 0.0 - Partly cloudy 10 - - - -
27/04:30am 20.2 SSW 7 9 1016.0 - 0.0 - Partly cloudy 10 - - - -
27/04:00am 20.4 SW 6 9 1015.7 - 0.0 - Cloudy 10 - - - -
27/03:39am 20.4 SSW 5 7 1015.6 - 0.0 - Partly cloudy 10 - - - -
27/03:30am 20.4 SSW 6 7 1015.6 - 0.0 - Partly cloudy 10 - - - -
27/03:00am 20.4 S 5 7 1015.3 - 0.0 - - 10 - - - -
27/02:30am 20.5 S 5 7 1015.4 - 0.0 - - 10 - - - -
27/02:00am 20.3 SSE 3 5 1015.6 - 0.0 - - 10 - - - -
27/01:30am 20.3 SSE 6 7 1016.0 - 0.0 - Partly cloudy 10 - - - -
27/01:00am 20.6 SSE 6 8 1016.2 - 0.0 - Partly cloudy 10 - - - -
27/12:30am 20.6 SSE 6 8 1016.7 - 0.0 - Partly cloudy 10 - - - -
27/12:00am 20.6 SSE 7 9 1016.6 - 0.0 - Cloudy 10 - - - -
 
Date/Time
EST
Temp
°C
Wind Pressure Rain since
9am
mm
Weather Cloud Vis
km
Sea
Height
m
Swell
Dir  Spd
kts
Gust
kts
hPa Trend Height
m
Period
s
Dir
26/11:30pm 20.6 SSE 10 13 1016.7 - 0.0 - Partly cloudy 10 - - - -
26/11:00pm 20.7 SSE 11 14 1016.8 - 0.0 - - 10 - - - -
26/10:30pm 21.1 SSE 11 14 1016.8 - 0.0 - Partly cloudy 10 - - - -
26/10:00pm 21.7 SE 10 13 1017.1 - 0.0 - Partly cloudy 10 - - - -
26/09:30pm 21.6 SE 10 12 1017.2 - 0.0 - Partly cloudy 10 - - - -
26/09:00pm 21.8 E 8 10 1017.1 - 0.0 - Mostly cloudy 10 - - - -
26/08:30pm 21.7 ESE 9 11 1017.1 - 0.0 - Partly cloudy 10 - - - -
26/08:00pm 21.7 E 9 12 1017.0 - 0.0 - Partly cloudy 10 - - - -
26/07:30pm 20.8 SE 8 11 1016.7 - 0.0 - Partly cloudy 10 - - - -
26/07:00pm 20.6 SE 11 13 1016.7 - 0.0 - Partly cloudy 10 - - - -
26/06:30pm 20.6 SSE 9 11 1016.5 - 0.0 - Partly cloudy 10 - - - -
26/06:00pm 20.3 SSE 9 14 1016.0 - 0.0 - Mostly cloudy 10 - - - -
26/05:30pm 20.1 SSE 7 10 1016.2 - 0.0 - Partly cloudy 10 - - - -
26/05:00pm 20.2 SSE 10 12 1015.9 - 0.0 - Partly cloudy 10 - - - -
26/04:30pm 20.3 SE 11 14 1015.7 - 0.0 - - 10 - - - -
26/04:00pm 20.6 SE 12 14 1015.6 - 0.0 - Partly cloudy 10 - - - -
26/03:30pm 20.8 SE 11 14 1015.8 - 0.0 - Partly cloudy 10 - - - -
26/03:00pm 21.0 SSE 12 14 1015.7 - 0.0 - Mostly clear 10 - - - -
26/02:30pm 20.4 SSE 14 16 1016.0 - 0.0 - Partly cloudy 10 - - - -
26/02:00pm 20.6 SSE 13 16 1016.3 - 0.0 - - 10 - - - -
26/01:30pm 20.4 SSE 15 17 1016.6 - 0.0 - - 10 - - - -
26/01:00pm 20.6 SSE 14 17 1016.9 - 0.0 - - 10 - - - -
26/12:30pm 20.5 SSE 16 18 1017.4 - 0.0 - - 10 - - - -
26/12:00pm 20.6 SSE 16 19 1017.7 - 0.0 - - 10 - - - -
26/11:30am 20.2 SSE 17 20 1018.1 - 0.0 - - 10 - - - -
26/11:00am 20.3 SSE 16 20 1018.5 - 0.0 - - 10 - - - -
26/10:30am 20.0 SSE 16 19 1018.8 - 0.0 - - 10 - - - -
26/10:00am 19.7 SSE 18 22 1018.9 - 0.0 - - 10 - - - -
26/09:30am 19.8 SSE 18 22 1019.1 - 0.0 - - 10 - - - -
26/09:00am 19.8 SSE 18 22 1018.7 - 0.0 - - 10 - - - -
26/08:30am 19.7 SSE 18 22 1018.7 - 0.0 - - 10 - - - -
26/08:00am 19.4 SSE 19 23 1018.5 - 0.0 - - 10 - - - -
26/07:30am 19.3 SSE 18 22 1018.1 - 0.0 - - 10 - - - -
26/07:00am 18.8 SSE 18 22 1017.9 - 0.0 - - 10 - - - -
26/06:30am 18.7 SSE 18 21 1017.5 - 0.0 - - 10 - - - -
26/06:00am 18.8 SSE 17 23 1017.2 - 0.0 - Mostly clear 10 - - - -
26/05:30am 18.9 SSE 16 20 1017.2 - 0.0 - Partly cloudy 10 - - - -
26/05:00am 19.7 SSE 14 18 1016.9 - 0.0 - Partly cloudy 10 - - - -
26/04:30am 20.1 SE 14 17 1016.6 - 0.0 - Partly cloudy 10 - - - -
26/04:00am 20.0 SE 14 17 1016.6 - 0.0 - Partly cloudy 10 - - - -
26/03:30am 19.8 SE 14 17 1016.5 - 0.0 - Partly cloudy 10 - - - -
26/03:00am 19.8 SE 14 18 1016.6 - 0.0 - Mostly clear 10 - - - -
26/02:30am 19.8 SE 13 15 1016.8 - 0.0 - Partly cloudy 10 - - - -
26/02:00am 20.1 SE 14 17 1017.1 - 0.0 - - 10 - - - -
26/01:30am 20.3 SE 14 17 1017.3 - 0.0 - Partly cloudy 10 - - - -
26/01:00am 20.4 ESE 14 17 1017.7 - 0.0 - Partly cloudy 10 - - - -
26/12:30am 20.3 SE 14 16 1017.8 - 0.0 - - 10 - - - -
26/12:00am 20.3 SE 16 19 1017.9 - 0.0 - - 10 - - - -
 
Date/Time
EST
Temp
°C
Wind Pressure Rain since
9am
mm
Weather Cloud Vis
km
Sea
Height
m
Swell
Dir  Spd
kts
Gust
kts
hPa Trend Height
m
Period
s
Dir
25/11:30pm 20.2 SE 15 18 1018.3 - 0.0 - - 10 - - - -
25/11:00pm 20.3 SE 15 18 1018.5 - 0.0 - - 10 - - - -
25/10:30pm 20.2 SE 14 17 1018.6 - 0.0 - - 10 - - - -
25/10:00pm 20.0 SE 14 17 1018.6 - 0.0 - - 10 - - - -
25/09:30pm 20.0 SE 15 17 1018.5 - 0.0 - - 10 - - - -
25/09:00pm 20.1 SE 13 15 1018.2 - 0.0 - - 10 - - - -
25/08:30pm 20.1 SE 15 16 1018.2 - 0.0 - - 10 - - - -
25/08:00pm 20.2 SE 16 17 1018.2 - 0.0 - - 10 - - - -
25/07:30pm 20.1 SE 15 17 1018.0 - 0.0 - - 10 - - - -
25/07:00pm 20.3 ESE 15 19 1017.8 - 0.0 - - 10 - - - -
25/06:30pm 20.3 ESE 15 17 1017.4 - 0.0 - - 10 - - - -
25/06:00pm 20.4 ESE 15 18 1017.2 - 0.0 - - 10 - - - -
25/05:30pm 20.1 ESE 13 16 1017.2 - 0.0 - - 10 - - - -
25/05:00pm 20.2 ESE 14 17 1016.9 - 0.0 - - 10 - - - -
25/04:30pm 20.0 ESE 15 17 1016.6 - 0.0 - - 10 - - - -
25/04:00pm 20.0 ESE 15 17 1016.4 - 0.0 - - 10 - - - -
25/03:30pm 20.3 ESE 15 18 1016.5 - 0.0 - - 10 - - - -
25/03:00pm 20.6 SE 16 19 1016.2 - 0.0 - - 10 - - - -
25/02:30pm 20.5 SE 16 19 1016.6 - 0.0 - - 10 - - - -
25/02:00pm 20.4 SE 17 19 1016.8 - 0.0 - - 10 - - - -
25/01:30pm 20.4 SE 18 22 1017.1 - 0.0 - - 10 - - - -
25/01:00pm 20.6 SE 18 22 1017.4 - 0.0 - - 10 - - - -
25/12:30pm 20.6 SE 18 21 1018.0 - 0.0 - - 10 - - - -
25/12:00pm 20.0 SE 20 23 1018.3 - 0.0 - - 10 - - - -

Other Formats:

Comma delimited format used in spreadsheet applications
http://www.bom.gov.au/fwo/IDQ60701/IDQ60701.94368.axf

JavaScript Object Notation format (JSON) in row-major order
http://www.bom.gov.au/fwo/IDQ60701/IDQ60701.94368.json